Terminal Aerodrome Forecast
Issued by NWS

Home | Current Version | Previous Version | Text Only | Print | Product List | Glossary Off
Versions: 1 2 3 4 5 6 7 8 9 10 11 12 13 14 15 16

506
FTUS43 KFGF 152009 AAA
TAFBJI
TAF AMD
KBJI 152009Z 1520/1618 30018KT P6SM OVC008
     FM152200 31015KT P6SM OVC010
     FM160600 VRB04KT P6SM BKN015
     FM161700 13011KT P6SM BKN015=

USA.gov is the U.S. government's official web portal to all federal, state and local government web resources and services.